Time;durP1;ratioP1;P1;durP2;ratioP2;P2;SDS_P1;SDS_P2;PMS_P1;PMS_P2;Temp;Humidity;BMP_temperature;BMP_pressure;BME280_temperature;BME280_humidity;BME280_pressure;Samples;Min_cycle;Max_cycle;Signal;HPM_P1;HPM_P2
2021/01/06 00:00:44;;;;;;;37.38;21.82;;;;;;;5.73;58.99;100728.86;1715028;83;21159;-78
2021/01/06 00:03:16;;;;;;;36.63;21.52;;;;;;;5.76;59.04;100727.27;1714714;83;21196;-78
2021/01/06 00:05:45;;;;;;;36.80;22.15;;;;;;;5.85;59.01;100726.05;1715024;83;21223;-80
2021/01/06 00:08:12;;;;;;;39.65;23.12;;;;;;;5.94;58.84;100722.34;1715146;83;21395;-80
2021/01/06 00:10:41;;;;;;;38.00;21.42;;;;;;;5.99;58.74;100721.48;1715124;83;21216;-80
2021/01/06 00:13:11;;;;;;;35.50;19.95;;;;;;;5.99;58.56;100722.81;1715307;83;21120;-80
2021/01/06 00:15:39;;;;;;;29.10;17.35;;;;;;;5.97;58.54;100716.30;1714815;83;21198;-78
2021/01/06 00:18:07;;;;;;;32.73;20.10;;;;;;;5.95;58.54;100727.56;1715048;83;21448;-78
2021/01/06 00:20:35;;;;;;;37.70;22.32;;;;;;;5.86;58.55;100734.91;1715115;83;21281;-78
2021/01/06 00:23:02;;;;;;;38.95;21.85;;;;;;;5.80;58.68;100722.08;1714885;83;21182;-78
2021/01/06 00:25:32;;;;;;;31.90;17.73;;;;;;;5.78;58.75;100718.70;1714877;83;21175;-78
2021/01/06 00:28:01;;;;;;;39.35;21.52;;;;;;;5.78;58.77;100716.05;1715076;83;21176;-77
2021/01/06 00:30:39;;;;;;;36.68;21.05;;;;;;;5.78;58.88;100726.67;1715067;83;21171;-79
2021/01/06 00:33:10;;;;;;;39.27;19.07;;;;;;;5.76;58.92;100720.62;1714956;83;21216;-78
2021/01/06 00:35:38;;;;;;;35.10;21.60;;;;;;;5.79;58.96;100711.92;1715019;83;21203;-78
2021/01/06 00:38:06;;;;;;;37.10;21.52;;;;;;;5.85;58.89;100711.43;1714796;83;21215;-78
2021/01/06 00:40:34;;;;;;;38.08;22.42;;;;;;;5.84;58.90;100699.60;1715352;83;21530;-78
2021/01/06 00:43:07;;;;;;;31.00;17.85;;;;;;;5.88;58.84;100704.20;1714974;83;21222;-78
2021/01/06 00:45:35;;;;;;;37.50;18.95;;;;;;;5.92;58.71;100713.66;1715053;83;21376;-78
2021/01/06 00:48:03;;;;;;;30.35;19.07;;;;;;;5.97;58.64;100718.96;1714658;83;21551;-78
2021/01/06 00:50:31;;;;;;;35.55;22.32;;;;;;;5.95;58.77;100716.05;1714963;83;21191;-79
2021/01/06 00:53:02;;;;;;;35.92;20.70;;;;;;;5.95;58.80;100701.42;1714756;83;21210;-78
2021/01/06 00:55:30;;;;;;;34.92;21.90;;;;;;;6.04;58.63;100705.55;1714786;83;21702;-80
2021/01/06 00:57:58;;;;;;;40.05;20.77;;;;;;;6.06;58.49;100702.76;1714601;83;21817;-79
2021/01/06 01:00:28;;;;;;;32.65;20.12;;;;;;;6.12;58.41;100704.07;1714929;83;21191;-79
2021/01/06 01:02:57;;;;;;;33.15;19.00;;;;;;;6.24;58.12;100701.27;1714642;83;21211;-79
2021/01/06 01:05:29;;;;;;;35.10;20.85;;;;;;;6.37;57.86;100700.28;1714979;83;21167;-78
2021/01/06 01:07:57;;;;;;;34.98;20.85;;;;;;;6.20;58.21;100704.30;1714540;83;21211;-79
2021/01/06 01:10:37;;;;;;;38.85;20.02;;;;;;;6.15;58.16;100701.17;1714902;83;21103;-78
2021/01/06 01:13:09;;;;;;;37.80;19.57;;;;;;;6.09;58.31;100699.38;1714193;83;21202;-78
2021/01/06 01:15:38;;;;;;;37.65;20.57;;;;;;;6.13;58.26;100697.78;1714976;83;21187;-77
2021/01/06 01:18:07;;;;;;;33.38;19.77;;;;;;;6.16;58.28;100689.56;1714796;83;21214;-77
2021/01/06 01:20:35;;;;;;;35.33;19.55;;;;;;;6.19;58.10;100701.30;1714869;83;21206;-78
2021/01/06 01:23:03;;;;;;;36.80;20.30;;;;;;;6.20;58.07;100700.31;1714872;83;21820;-78
2021/01/06 01:25:30;;;;;;;35.38;19.10;;;;;;;6.22;57.96;100702.35;1714825;83;21175;-79
2021/01/06 01:27:58;;;;;;;37.38;20.75;;;;;;;6.14;57.81;100704.81;1714794;83;21200;-79
2021/01/06 01:30:27;;;;;;;37.88;21.00;;;;;;;6.04;57.97;100708.67;1714814;83;21056;-78
2021/01/06 01:32:55;;;;;;;36.68;20.08;;;;;;;5.98;58.08;100709.17;1714996;83;21193;-78
2021/01/06 01:35:29;;;;;;;27.13;14.90;;;;;;;5.92;58.17;100702.53;1714862;83;22315;-78
2021/01/06 01:37:58;;;;;;;37.65;20.70;;;;;;;5.95;58.30;100703.62;1714634;83;21250;-78
2021/01/06 01:40:32;;;;;;;37.23;19.40;;;;;;;5.97;58.37;100698.17;1714994;83;21136;-77
2021/01/06 01:43:19;;;;;;;39.38;20.75;;;;;;;5.99;58.36;100704.20;1714232;83;21540;-77
2021/01/06 01:45:56;;;;;;;36.83;21.17;;;;;;;5.97;58.43;100704.34;1691077;83;21158;-78
2021/01/06 01:48:40;;;;;;;35.10;18.52;;;;;;;5.97;58.43;100704.34;1714912;83;22239;-78
2021/01/06 01:51:33;;;;;;;30.57;18.80;;;;;;;5.95;58.38;100705.41;1714793;83;21182;-78
2021/01/06 01:54:10;;;;;;;42.73;20.85;;;;;;;5.91;58.50;100703.48;1714870;83;21188;-76
2021/01/06 01:56:49;;;;;;;39.55;22.27;;;;;;;5.95;58.51;100694.78;1715060;83;21187;-79
2021/01/06 01:59:28;;;;;;;32.20;15.58;;;;;;;5.97;58.56;100692.86;1713838;83;21175;-78
2021/01/06 02:02:00;;;;;;;35.03;19.00;;;;;;;6.02;58.42;100694.17;1710145;83;21910;-80
2021/01/06 02:04:56;;;;;;;38.45;19.48;;;;;;;5.98;58.36;100684.75;1714357;83;21198;-78
2021/01/06 02:07:30;;;;;;;35.20;19.35;;;;;;;5.96;58.42;100692.02;1684871;84;21223;-79
2021/01/06 02:10:18;;;;;;;40.00;21.45;;;;;;;5.95;58.48;100689.00;1709175;83;21190;-78
2021/01/06 02:13:11;;;;;;;41.63;21.55;;;;;;;5.97;58.55;100693.70;1714210;83;22149;-77
2021/01/06 02:15:44;;;;;;;38.00;18.92;;;;;;;6.10;58.39;100692.23;1714967;83;21331;-77
2021/01/06 02:18:13;;;;;;;32.40;19.20;;;;;;;6.24;58.02;100687.13;1716332;80;21228;-78
2021/01/06 02:20:41;;;;;;;35.43;18.35;;;;;;;6.30;57.98;100686.62;1714725;83;21311;-79
2021/01/06 02:23:09;;;;;;;35.83;20.05;;;;;;;6.26;58.17;100682.03;1714051;83;21224;-77
2021/01/06 02:25:39;;;;;;;36.65;18.57;;;;;;;6.30;58.08;100674.65;1714851;83;21169;-80
2021/01/06 02:28:08;;;;;;;41.42;20.43;;;;;;;6.43;57.67;100681.98;1714643;83;21191;-77
2021/01/06 02:30:36;;;;;;;28.38;15.78;;;;;;;6.43;57.50;100664.70;1714916;83;21192;-77
2021/01/06 02:33:06;;;;;;;38.53;19.20;;;;;;;6.41;57.51;100661.81;1714495;83;21767;-78
2021/01/06 02:35:35;;;;;;;38.35;20.02;;;;;;;6.42;57.35;100665.67;1668705;83;21199;-79
2021/01/06 02:38:03;;;;;;;43.92;21.62;;;;;;;6.32;57.38;100666.92;1714583;83;21195;-79
2021/01/06 02:40:31;;;;;;;37.88;19.05;;;;;;;6.17;57.74;100671.30;1689469;83;21386;-78
2021/01/06 02:42:59;;;;;;;41.13;18.42;;;;;;;6.20;57.84;100663.92;1714315;83;21220;-79
2021/01/06 02:45:27;;;;;;;44.00;22.77;;;;;;;6.28;57.81;100669.47;1714781;83;21236;-79
2021/01/06 02:47:55;;;;;;;41.08;19.65;;;;;;;6.18;58.01;100657.05;1714524;83;21200;-80
2021/01/06 02:50:26;;;;;;;45.60;20.35;;;;;;;6.14;58.22;100675.07;1714812;83;21184;-80
2021/01/06 02:52:58;;;;;;;42.95;20.95;;;;;;;6.09;58.29;100672.78;1714797;83;22265;-79
2021/01/06 02:55:27;;;;;;;43.60;22.73;;;;;;;6.10;58.44;100681.11;1714848;83;21152;-78
2021/01/06 02:57:54;;;;;;;44.25;20.68;;;;;;;6.21;58.21;100672.74;1714720;83;21196;-78
2021/01/06 03:00:25;;;;;;;38.65;17.95;;;;;;;6.18;58.28;100690.30;1689771;83;21192;-79
2021/01/06 03:02:53;;;;;;;42.75;19.77;;;;;;;6.07;58.45;100685.83;1714759;83;21168;-78
2021/01/06 03:05:32;;;;;;;45.63;20.52;;;;;;;5.97;58.66;100684.40;1714760;83;22331;-78
2021/01/06 03:08:03;;;;;;;47.73;23.15;;;;;;;5.92;58.84;100689.73;1714756;83;21251;-77
2021/01/06 03:10:31;;;;;;;47.43;22.87;;;;;;;5.99;58.73;100685.59;1714979;83;21179;-77
2021/01/06 03:12:59;;;;;;;55.70;22.95;;;;;;;5.86;59.01;100685.72;1715172;83;21180;-80
2021/01/06 03:15:27;;;;;;;52.95;22.67;;;;;;;5.80;59.28;100682.20;1715079;83;21192;-78
2021/01/06 03:17:57;;;;;;;43.08;19.27;;;;;;;5.76;59.43;100700.69;1715065;83;22234;-78
2021/01/06 03:20:34;;;;;;;48.78;20.30;;;;;;;5.78;59.41;100694.78;1715118;83;21666;-81
2021/01/06 03:23:06;;;;;;;51.23;21.55;;;;;;;5.71;59.55;100688.25;1715171;83;21204;-78
2021/01/06 03:25:35;;;;;;;50.17;21.95;;;;;;;5.89;59.25;100689.93;1715170;83;21623;-79
2021/01/06 03:28:04;;;;;;;47.40;20.40;;;;;;;5.94;59.18;100698.41;1714668;83;21264;-78
2021/01/06 03:30:33;;;;;;;46.37;21.60;;;;;;;5.95;59.24;100690.80;1690853;83;21730;-78
2021/01/06 03:33:24;;;;;;;43.42;19.65;;;;;;;6.00;59.14;100694.80;1714817;83;21643;-80
2021/01/06 03:36:09;;;;;;;48.92;21.52;;;;;;;6.08;59.08;100700.80;1888282;76;23049;-80
2021/01/06 03:38:42;;;;;;;58.35;23.77;;;;;;;6.05;59.01;100707.23;1859059;77;21525;-79
2021/01/06 03:41:10;;;;;;;43.58;17.48;;;;;;;6.00;59.07;100692.14;1826120;77;21226;-78
2021/01/06 03:43:42;;;;;;;38.20;19.48;;;;;;;6.10;58.79;100698.40;1853511;77;21201;-78
2021/01/06 03:46:23;;;;;;;37.88;16.45;;;;;;;6.10;58.78;100686.44;1859846;77;21095;-78
2021/01/06 03:49:07;;;;;;;45.40;19.80;;;;;;;6.08;58.89;100695.00;1859833;77;21095;-77
2021/01/06 03:52:11;;;;;;;58.30;22.95;;;;;;;6.12;58.81;100704.07;1854705;77;21094;-78
2021/01/06 03:54:56;;;;;;;53.33;20.80;;;;;;;6.16;58.71;100698.38;1841747;77;22626;-77
2021/01/06 03:57:26;;;;;;;53.87;22.58;;;;;;;6.23;58.63;100693.43;1825452;78;21174;-78
2021/01/06 03:59:54;;;;;;;45.78;21.12;;;;;;;6.25;58.61;100688.81;1825585;78;21199;-78
2021/01/06 04:02:45;;;;;;;52.08;21.45;;;;;;;6.24;58.56;100695.95;1790663;79;21647;-77
2021/01/06 04:05:15;;;;;;;47.45;23.20;;;;;;;6.12;58.83;100694.27;1797632;79;21414;-79
2021/01/06 04:07:55;;;;;;;48.52;19.52;;;;;;;6.21;58.69;100705.98;1764524;79;21369;-78
2021/01/06 04:10:30;;;;;;;51.63;21.65;;;;;;;6.24;58.56;100696.44;1797185;79;21175;-77
2021/01/06 04:12:58;;;;;;;44.00;21.02;;;;;;;6.16;58.71;100696.21;1797742;79;21096;-77
2021/01/06 04:15:27;;;;;;;47.45;20.55;;;;;;;6.22;58.57;100697.03;1797596;79;21658;-78
2021/01/06 04:17:56;;;;;;;50.40;21.23;;;;;;;6.22;58.56;100696.58;1796994;79;21167;-81
2021/01/06 04:20:35;;;;;;;48.08;19.50;;;;;;;6.21;58.63;100708.65;1797171;79;21155;-77
2021/01/06 04:23:13;;;;;;;50.85;21.48;;;;;;;6.19;58.67;100698.14;1796266;79;21206;-78
2021/01/06 04:25:44;;;;;;;48.30;20.45;;;;;;;6.13;58.84;100713.73;1797798;79;21151;-77
2021/01/06 04:28:26;;;;;;;58.42;24.30;;;;;;;6.08;58.99;100722.92;1797121;79;21167;-77
2021/01/06 04:31:12;;;;;;;51.20;21.62;;;;;;;6.08;59.10;100708.78;1796766;79;21175;-79
2021/01/06 04:33:47;;;;;;;56.13;20.12;;;;;;;6.09;59.19;100729.12;1798127;79;21550;-78
2021/01/06 04:36:18;;;;;;;58.63;21.62;;;;;;;6.05;59.28;100723.67;1797605;77;21693;-78
2021/01/06 04:38:49;;;;;;;53.63;21.90;;;;;;;6.00;59.43;100717.88;1797772;79;21048;-79
2021/01/06 04:41:34;;;;;;;53.50;20.62;;;;;;;5.90;59.84;100719.53;1797605;79;21167;-78
2021/01/06 04:44:28;;;;;;;55.40;21.42;;;;;;;5.83;60.19;100720.52;1794602;77;21194;-78
2021/01/06 04:47:39;;;;;;;54.55;19.48;;;;;;;6.02;59.85;100711.45;1801765;78;21819;-78
2021/01/06 04:50:45;;;;;;;53.13;19.92;;;;;;;5.95;60.09;100714.27;1827294;78;21188;-78
2021/01/06 04:53:34;;;;;;;51.48;20.45;;;;;;;6.04;59.93;100713.53;1829014;78;21182;-78
2021/01/06 04:56:31;;;;;;;52.50;21.25;;;;;;;6.06;60.01;100714.23;1828675;78;21197;-78
2021/01/06 04:59:53;;;;;;;54.95;21.75;;;;;;;6.06;60.14;100716.05;1828978;78;21171;-80
2021/01/06 05:02:27;;;;;;;44.03;20.35;;;;;;;5.80;60.85;100737.53;1828572;78;21365;-78
2021/01/06 05:05:15;;;;;;;55.35;22.42;;;;;;;5.72;61.12;100721.83;1828947;78;21148;-77
2021/01/06 05:08:23;;;;;;;53.15;21.52;;;;;;;5.78;61.12;100717.38;1827352;78;21485;-78
2021/01/06 05:10:58;;;;;;;42.25;17.23;;;;;;;5.70;61.37;100714.47;1828551;78;21178;-80
2021/01/06 05:13:53;;;;;;;57.93;23.22;;;;;;;5.70;61.60;100712.66;1828687;78;21166;-79
2021/01/06 05:16:34;;;;;;;45.78;20.20;;;;;;;5.69;61.62;100720.76;1820252;77;21288;-77
2021/01/06 05:19:06;;;;;;;56.53;23.05;;;;;;;5.67;61.71;100725.33;1824173;78;21142;-79
2021/01/06 05:21:34;;;;;;;45.30;20.85;;;;;;;5.63;61.82;100721.22;1824945;78;21126;-79
2021/01/06 05:24:10;;;;;;;50.48;22.52;;;;;;;5.65;61.88;100722.80;1837405;76;21174;-78
2021/01/06 05:26:37;;;;;;;50.88;21.97;;;;;;;5.67;61.90;100725.33;1855796;77;21159;-79
2021/01/06 05:29:12;;;;;;;53.87;22.32;;;;;;;5.67;61.85;100724.00;1850237;76;22289;-79
2021/01/06 05:31:40;;;;;;;47.65;18.80;;;;;;;5.65;61.90;100720.62;1847425;76;21468;-78
2021/01/06 05:34:08;;;;;;;50.80;21.55;;;;;;;5.68;61.83;100715.05;1856700;77;21173;-78
2021/01/06 05:36:36;;;;;;;49.42;20.97;;;;;;;5.78;61.56;100712.91;1853619;77;21190;-79
2021/01/06 05:39:20;;;;;;;43.95;20.12;;;;;;;5.82;61.52;100728.13;1794202;79;21653;-78
2021/01/06 05:41:51;;;;;;;57.67;23.30;;;;;;;5.82;61.57;100723.66;1834186;77;21379;-80
2021/01/06 05:44:19;;;;;;;30.50;14.83;;;;;;;5.91;61.41;100718.59;1802581;78;21120;-78
2021/01/06 05:46:47;;;;;;;54.48;22.10;;;;;;;5.92;61.36;100718.48;1831999;76;21185;-79
2021/01/06 05:49:25;;;;;;;51.70;24.52;;;;;;;5.91;61.34;100718.09;1823407;78;21181;-79
2021/01/06 05:52:00;;;;;;;50.15;23.92;;;;;;;5.95;61.36;100711.61;1791923;78;21165;-79
2021/01/06 05:54:39;;;;;;;38.78;17.92;;;;;;;6.03;61.29;100712.30;1793168;77;21805;-81
2021/01/06 05:57:35;;;;;;;47.90;20.82;;;;;;;6.07;61.20;100717.73;1814820;76;21179;-81
2021/01/06 06:00:37;;;;;;;39.60;19.35;;;;;;;6.09;61.10;100727.30;1786919;77;21233;-79
2021/01/06 06:03:45;;;;;;;53.30;24.72;;;;;;;6.05;61.16;100721.86;1840505;77;21597;-82
2021/01/06 06:06:45;;;;;;;59.77;24.10;;;;;;;6.05;61.20;100718.36;1855061;77;21178;-79
2021/01/06 06:09:42;;;;;;;46.25;20.48;;;;;;;6.07;61.21;100724.39;1852898;77;21376;-78
2021/01/06 06:12:53;;;;;;;48.58;20.40;;;;;;;6.07;61.19;100737.69;1843932;77;21535;-78
2021/01/06 06:15:38;;;;;;;49.23;22.82;;;;;;;6.07;61.29;100730.55;1803240;78;21162;-78
2021/01/06 06:18:41;;;;;;;54.93;24.72;;;;;;;6.12;61.33;100724.86;1848094;77;21074;-79
2021/01/06 06:21:32;;;;;;;50.98;22.50;;;;;;;6.19;61.23;100732.72;1844720;77;21129;-80
2021/01/06 06:24:14;;;;;;;55.90;24.80;;;;;;;6.23;61.16;100730.67;1824151;77;21400;-78
2021/01/06 06:27:38;;;;;;;59.23;25.20;;;;;;;6.25;61.14;100728.72;1821548;76;21025;-78
2021/01/06 06:30:16;;;;;;;44.93;22.32;;;;;;;6.31;61.07;100730.41;1835131;76;21566;-79
2021/01/06 06:32:44;;;;;;;55.15;24.77;;;;;;;6.41;60.94;100738.98;1849246;76;21114;-78
2021/01/06 06:35:26;;;;;;;53.55;23.50;;;;;;;6.42;60.86;100738.00;1844421;76;21103;-77
2021/01/06 06:38:01;;;;;;;47.78;22.05;;;;;;;6.44;60.79;100742.21;1817439;76;21539;-78
2021/01/06 06:41:04;;;;;;;54.70;24.15;;;;;;;6.47;60.77;100741.13;1819228;76;21143;-80
2021/01/06 06:43:48;;;;;;;58.15;26.37;;;;;;;6.52;60.74;100737.11;1839740;77;21144;-78
2021/01/06 06:46:45;;;;;;;66.60;28.57;;;;;;;6.62;60.61;100742.53;1795072;78;21109;-80
2021/01/06 06:49:40;;;;;;;60.45;26.65;;;;;;;6.69;60.51;100750.88;1836783;77;21112;-79
2021/01/06 06:52:46;;;;;;;67.80;27.73;;;;;;;6.76;60.33;100749.37;1810480;78;21376;-79
2021/01/06 06:56:06;;;;;;;69.22;29.15;;;;;;;6.78;60.22;100744.79;1831371;77;21119;-79
2021/01/06 06:59:17;;;;;;;54.33;26.48;;;;;;;6.82;60.11;100742.23;1767957;78;21255;-80
2021/01/06 07:02:07;;;;;;;70.03;31.93;;;;;;;6.83;60.05;100742.59;1806061;77;22123;-81
2021/01/06 07:05:04;;;;;;;76.97;33.58;;;;;;;6.87;60.08;100746.69;1795397;78;21205;-78
2021/01/06 07:08:14;;;;;;;74.45;30.40;;;;;;;6.96;59.89;100745.09;1817980;76;21200;-78
2021/01/06 07:11:28;;;;;;;65.87;27.10;;;;;;;6.88;60.07;100745.71;1845196;77;21645;-79
2021/01/06 07:14:36;;;;;;;76.50;32.08;;;;;;;6.79;60.36;100747.80;1839759;75;22873;-79
2021/01/06 07:17:14;;;;;;;70.17;30.35;;;;;;;6.73;60.38;100746.50;1809644;77;21109;-78
2021/01/06 07:19:58;;;;;;;74.25;32.15;;;;;;;6.76;60.41;100746.72;1787856;77;22228;-80
2021/01/06 07:22:40;;;;;;;65.35;28.57;;;;;;;6.74;60.45;100750.00;1748378;80;21581;-80
2021/01/06 07:25:23;;;;;;;64.37;28.50;;;;;;;6.75;60.50;100749.03;1756512;80;21671;-78
2021/01/06 07:27:59;;;;;;;65.17;30.37;;;;;;;6.78;60.53;100754.11;1760579;80;21209;-77
2021/01/06 07:30:40;;;;;;;59.60;25.65;;;;;;;6.86;60.49;100750.33;1748410;80;21124;-77
2021/01/06 07:33:40;;;;;;;66.33;26.90;;;;;;;7.31;59.61;100750.09;1751767;80;21297;-79
2021/01/06 07:36:22;;;;;;;55.88;25.08;;;;;;;7.10;59.97;100746.10;1737743;80;21153;-80
2021/01/06 07:38:57;;;;;;;57.90;23.95;;;;;;;7.09;60.13;100743.09;1738159;81;21096;-80
2021/01/06 07:41:40;;;;;;;56.65;23.62;;;;;;;7.11;60.11;100747.30;1751326;80;21557;-80
2021/01/06 07:44:33;;;;;;;59.27;24.10;;;;;;;7.13;60.07;100752.52;1746468;80;21743;-81
2021/01/06 07:47:16;;;;;;;59.05;24.10;;;;;;;7.16;59.97;100752.72;1751824;80;21198;-79
2021/01/06 07:49:56;;;;;;;56.85;24.57;;;;;;;7.32;59.68;100753.97;1744488;80;21475;-78
2021/01/06 07:53:02;;;;;;;58.50;25.35;;;;;;;7.37;59.55;100760.25;1741553;80;21597;-78
2021/01/06 07:55:45;;;;;;;63.15;29.20;;;;;;;7.36;59.51;100760.73;1746344;80;21612;-78
2021/01/06 07:58:22;;;;;;;73.75;33.48;;;;;;;7.30;59.58;100762.57;1734095;80;21625;-78
2021/01/06 08:00:58;;;;;;;58.85;25.30;;;;;;;7.31;59.54;100769.61;1748153;80;21359;-78
2021/01/06 08:04:00;;;;;;;55.63;22.52;;;;;;;7.33;59.57;100770.80;1713000;82;21708;-79
2021/01/06 08:06:54;;;;;;;54.30;22.80;;;;;;;7.34;59.53;100777.81;1719787;81;21548;-79
2021/01/06 08:09:36;;;;;;;56.53;24.40;;;;;;;7.38;59.48;100769.92;1707940;83;21216;-78
2021/01/06 08:12:39;;;;;;;58.05;23.47;;;;;;;7.41;59.41;100772.83;1742773;80;21793;-79
2021/01/06 08:15:25;;;;;;;53.50;23.07;;;;;;;7.42;59.35;100773.18;1658096;82;66284;-78
2021/01/06 08:18:25;;;;;;;54.50;22.67;;;;;;;7.42;59.29;100776.69;1644855;86;21517;-78
2021/01/06 08:21:19;;;;;;;51.08;21.50;;;;;;;7.39;59.29;100767.61;1614150;87;21755;-78
2021/01/06 08:24:24;;;;;;;59.48;23.85;;;;;;;7.39;59.28;100766.28;1667235;85;21100;-79
2021/01/06 08:26:58;;;;;;;56.50;25.40;;;;;;;7.41;59.32;100768.84;1679514;83;21238;-81
2021/01/06 08:29:35;;;;;;;55.98;25.62;;;;;;;7.44;59.29;100763.22;1672701;84;21441;-81
2021/01/06 08:32:22;;;;;;;59.70;24.15;;;;;;;7.46;59.21;100759.47;1670986;84;21841;-82
2021/01/06 08:35:02;;;;;;;75.28;28.42;;;;;;;7.48;59.17;100760.66;1673962;84;21223;-80
2021/01/06 08:37:37;;;;;;;59.25;24.63;;;;;;;7.48;59.18;100764.16;1685207;84;21600;-78
2021/01/06 08:40:34;;;;;;;51.40;23.40;;;;;;;7.50;59.09;100752.91;1673791;84;21146;-78
2021/01/06 08:43:21;;;;;;;44.33;19.85;;;;;;;7.54;59.05;100749.00;1671396;85;21264;-78
2021/01/06 08:45:58;;;;;;;52.53;22.40;;;;;;;7.56;58.97;100757.70;1665793;85;21090;-80
2021/01/06 08:48:35;;;;;;;51.05;22.52;;;;;;;7.56;58.95;100756.85;1691111;84;21172;-80
2021/01/06 08:51:12;;;;;;;51.50;22.75;;;;;;;7.56;58.94;100757.70;1663276;84;21148;-80
2021/01/06 08:53:43;;;;;;;51.23;21.40;;;;;;;7.55;58.93;100757.34;1659760;84;21196;-80
2021/01/06 08:56:22;;;;;;;49.33;23.27;;;;;;;7.56;58.85;100760.85;1673023;84;21868;-80
2021/01/06 08:58:56;;;;;;;54.88;23.00;;;;;;;7.52;58.84;100760.27;1632909;87;21148;-78
2021/01/06 09:01:49;;;;;;;52.90;23.27;;;;;;;7.50;58.87;100756.90;1651916;84;21597;-78
2021/01/06 09:04:21;;;;;;;51.65;23.18;;;;;;;7.50;58.87;100758.72;1664394;84;21168;-82
2021/01/06 09:07:07;;;;;;;54.83;21.40;;;;;;;7.50;58.92;100763.56;1673344;84;21216;-79
2021/01/06 09:10:07;;;;;;;50.35;21.37;;;;;;;7.50;59.01;100754.72;1673894;84;22282;-78
2021/01/06 09:12:55;;;;;;;50.38;23.95;;;;;;;7.51;59.01;100753.73;1680815;84;21218;-82
2021/01/06 09:15:28;;;;;;;49.57;22.67;;;;;;;7.54;58.96;100753.45;1658694;85;21221;-80
2021/01/06 09:18:03;;;;;;;43.52;20.77;;;;;;;7.52;59.03;100748.77;1668894;84;21649;-78
2021/01/06 09:20:42;;;;;;;43.55;20.37;;;;;;;7.50;59.13;100750.23;1675181;84;21161;-78
2021/01/06 09:23:17;;;;;;;44.33;20.27;;;;;;;7.52;59.17;100751.42;1659478;85;22452;-79
2021/01/06 09:25:45;;;;;;;41.63;18.98;;;;;;;7.55;59.14;100757.34;1658703;84;21240;-79
2021/01/06 09:28:13;;;;;;;46.42;20.10;;;;;;;7.58;59.10;100755.73;1674506;84;21296;-78
2021/01/06 09:30:41;;;;;;;46.73;21.40;;;;;;;7.60;59.02;100756.45;1676636;84;21200;-78
2021/01/06 09:33:31;;;;;;;40.78;18.75;;;;;;;7.65;58.93;100756.55;1635153;84;21460;-78
2021/01/06 09:36:02;;;;;;;45.25;19.67;;;;;;;7.68;58.90;100765.63;1678788;84;21810;-78
2021/01/06 09:38:35;;;;;;;44.33;19.02;;;;;;;7.70;58.84;100757.00;1665702;85;21212;-78
2021/01/06 09:41:07;;;;;;;45.80;19.50;;;;;;;7.73;58.78;100762.08;1694645;84;21651;-79
2021/01/06 09:43:39;;;;;;;41.28;18.20;;;;;;;7.74;58.71;100767.27;1645603;85;21195;-77
2021/01/06 09:46:54;;;;;;;41.42;17.37;;;;;;;7.73;58.69;100765.59;1677376;84;21647;-78
2021/01/06 09:49:22;;;;;;;44.42;18.10;;;;;;;7.74;58.70;100762.43;1652881;85;21288;-79
2021/01/06 09:51:58;;;;;;;39.33;17.67;;;;;;;7.77;58.69;100759.50;1663035;84;21654;-79
2021/01/06 09:54:25;;;;;;;43.78;18.00;;;;;;;7.79;58.65;100753.05;1681104;84;21125;-79
2021/01/06 09:56:55;;;;;;;47.27;20.95;;;;;;;7.82;58.60;100754.61;1652097;85;21110;-78
2021/01/06 09:59:28;;;;;;;44.35;18.85;;;;;;;7.83;58.54;100754.47;1679896;84;21091;-79
2021/01/06 10:02:09;;;;;;;32.98;15.15;;;;;;;7.84;58.50;100749.48;1659821;85;22701;-78
2021/01/06 10:04:40;;;;;;;38.83;18.87;;;;;;;7.85;58.51;100744.99;1692998;84;21578;-80
2021/01/06 10:07:40;;;;;;;41.35;17.70;;;;;;;7.87;58.54;100752.39;1627013;86;21135;-79
2021/01/06 10:10:20;;;;;;;45.88;20.62;;;;;;;7.91;58.55;100752.97;1671144;84;21139;-79
2021/01/06 10:13:34;;;;;;;43.58;19.07;;;;;;;7.93;58.47;100751.84;1656206;86;21120;-79
2021/01/06 10:16:36;;;;;;;49.60;23.12;;;;;;;7.97;58.44;100757.77;1665617;84;21594;-78
2021/01/06 10:19:42;;;;;;;47.03;22.30;;;;;;;7.97;58.27;100757.27;1664627;85;21133;-79
2021/01/06 10:22:51;;;;;;;42.00;18.07;;;;;;;7.96;58.30;100758.75;1671264;84;21123;-80
2021/01/06 10:25:42;;;;;;;36.05;16.75;;;;;;;7.95;58.31;100755.70;1658250;86;21120;-78
2021/01/06 10:28:31;;;;;;;39.67;17.92;;;;;;;7.93;58.23;100757.18;1673708;84;21116;-78
2021/01/06 10:31:12;;;;;;;36.38;17.05;;;;;;;7.93;58.33;100763.84;1658955;85;21364;-79
2021/01/06 10:34:03;;;;;;;40.85;17.00;;;;;;;7.93;58.28;100759.00;1662933;84;21140;-78
2021/01/06 10:36:56;;;;;;;35.75;16.17;;;;;;;7.90;58.29;100760.10;1583392;89;21265;-79
2021/01/06 10:39:40;;;;;;;33.70;14.10;;;;;;;7.87;58.19;100769.23;1657181;85;21094;-78
2021/01/06 10:42:26;;;;;;;34.05;15.58;;;;;;;7.82;58.35;100774.62;1666760;85;21275;-79
2021/01/06 10:45:07;;;;;;;33.83;16.17;;;;;;;7.82;58.49;100771.45;1661165;85;21381;-76
2021/01/06 10:47:46;;;;;;;38.13;17.52;;;;;;;7.84;58.54;100771.31;1660025;85;21151;-75
2021/01/06 10:50:31;;;;;;;40.58;16.17;;;;;;;7.83;58.54;100767.80;1662894;84;21248;-77
2021/01/06 10:53:16;;;;;;;39.53;16.17;;;;;;;7.84;58.69;100761.98;1657368;85;21077;-81
2021/01/06 10:55:53;;;;;;;33.75;15.13;;;;;;;7.86;58.74;100762.22;1691464;84;21457;-76
2021/01/06 10:59:00;;;;;;;33.23;15.13;;;;;;;7.87;58.66;100760.39;1661287;85;21382;-80
2021/01/06 11:02:05;;;;;;;36.03;16.67;;;;;;;7.84;58.71;100756.16;1628800;86;21286;-83
2021/01/06 11:04:54;;;;;;;41.25;19.32;;;;;;;7.91;58.78;100755.15;1625609;86;21302;-78
2021/01/06 11:07:49;;;;;;;40.40;18.48;;;;;;;7.94;58.75;100752.69;1669420;84;21486;-77
2021/01/06 11:10:42;;;;;;;39.30;15.98;;;;;;;7.94;58.65;100752.19;1663503;82;21746;-84
2021/01/06 11:13:50;;;;;;;35.70;15.05;;;;;;;7.95;58.65;100761.03;1675490;84;21459;-81
2021/01/06 11:16:27;;;;;;;39.75;17.05;;;;;;;7.95;58.63;100768.58;1654550;85;21252;-80
2021/01/06 11:18:56;;;;;;;41.80;17.37;;;;;;;7.97;58.70;100754.60;1634688;85;21155;-79
2021/01/06 11:21:39;;;;;;;44.13;17.77;;;;;;;7.99;58.67;100759.30;1667093;85;21105;-78
2021/01/06 11:23:59;;;;;;;44.63;18.23;;;;;;;8.02;58.50;100759.05;1668903;85;21606;-77
2021/01/06 11:26:41;;;;;;;46.08;19.17;;;;;;;8.01;58.38;100756.03;1643418;86;21445;-79
2021/01/06 11:29:17;;;;;;;48.15;18.95;;;;;;;7.97;58.46;100750.59;1672492;85;21171;-78
2021/01/06 11:32:21;;;;;;;41.92;17.82;;;;;;;7.97;58.68;100756.43;1663607;85;21171;-79
2021/01/06 11:35:00;;;;;;;45.12;19.92;;;;;;;7.96;58.73;100760.08;1670419;85;21135;-79
2021/01/06 11:37:33;;;;;;;46.28;19.77;;;;;;;7.98;58.58;100774.12;1669624;85;21128;-78
2021/01/06 11:40:09;;;;;;;51.88;20.90;;;;;;;7.94;58.75;100778.86;1658091;86;21531;-78
2021/01/06 11:42:47;;;;;;;54.65;22.32;;;;;;;7.95;58.66;100776.58;1655954;84;21166;-80
2021/01/06 11:45:21;;;;;;;46.35;20.40;;;;;;;7.96;58.68;100781.42;1677668;84;21147;-80
2021/01/06 11:48:02;;;;;;;43.23;19.40;;;;;;;7.95;58.76;100781.91;1653903;85;21503;-82
2021/01/06 11:50:42;;;;;;;49.58;20.68;;;;;;;7.94;58.83;100784.69;1660269;85;21211;-79
2021/01/06 11:53:29;;;;;;;60.08;23.07;;;;;;;7.97;58.76;100787.95;1654618;85;21337;-77
2021/01/06 11:56:21;;;;;;;54.30;22.85;;;;;;;7.98;58.74;100782.95;1669207;84;21351;-79
2021/01/06 11:59:16;;;;;;;60.20;23.27;;;;;;;8.01;58.84;100780.03;1662326;85;21627;-78
2021/01/06 12:02:14;;;;;;;50.05;18.05;;;;;;;8.01;58.88;100784.03;1625106;86;21196;-79
2021/01/06 12:05:21;;;;;;;52.38;21.35;;;;;;;8.04;58.85;100775.78;1668969;84;21564;-80
2021/01/06 12:08:32;;;;;;;48.63;18.95;;;;;;;8.08;58.83;100784.33;1659930;84;21210;-79
2021/01/06 12:11:27;;;;;;;57.67;21.10;;;;;;;8.11;58.81;100798.25;1671813;85;21598;-80
2021/01/06 12:14:07;;;;;;;52.45;21.60;;;;;;;8.11;58.73;100793.41;1659824;85;21215;-80
2021/01/06 12:17:10;;;;;;;55.15;20.57;;;;;;;8.09;58.65;100794.89;1670669;85;21203;-81
2021/01/06 12:20:05;;;;;;;44.33;17.25;;;;;;;8.11;58.72;100796.92;1652945;86;21236;-79